sensor_id;sensor_type;location;lat;lon;timestamp;pressure;altitude;pressure_sealevel;temperature;humidity
75359;BME280;64046;51.978;5.934;2024-02-21T00:00:14;102074.91;;;14.78;86.96
75359;BME280;64046;51.978;5.934;2024-02-21T00:02:43;102065.53;;;14.71;86.87
75359;BME280;64046;51.978;5.934;2024-02-21T00:05:13;102064.63;;;14.72;86.66
75359;BME280;64046;51.978;5.934;2024-02-21T00:07:42;102062.97;;;14.69;86.61
75359;BME280;64046;51.978;5.934;2024-02-21T00:10:14;102061.34;;;14.87;86.50
75359;BME280;64046;51.978;5.934;2024-02-21T00:12:44;102056.63;;;14.74;86.50
75359;BME280;64046;51.978;5.934;2024-02-21T00:15:13;102052.13;;;14.76;86.65
75359;BME280;64046;51.978;5.934;2024-02-21T00:17:44;102057.56;;;14.73;86.69
75359;BME280;64046;51.978;5.934;2024-02-21T00:20:17;102060.53;;;14.85;86.60
75359;BME280;64046;51.978;5.934;2024-02-21T00:22:46;102057.63;;;14.71;87.01
75359;BME280;64046;51.978;5.934;2024-02-21T00:25:19;102050.66;;;14.91;86.61
75359;BME280;64046;51.978;5.934;2024-02-21T00:27:49;102044.34;;;14.73;87.02
75359;BME280;64046;51.978;5.934;2024-02-21T00:30:21;102048.00;;;14.91;86.58
75359;BME280;64046;51.978;5.934;2024-02-21T00:32:50;102045.16;;;14.75;86.64
75359;BME280;64046;51.978;5.934;2024-02-21T00:35:21;102035.53;;;14.74;86.64
75359;BME280;64046;51.978;5.934;2024-02-21T00:37:51;102038.09;;;14.75;86.88
75359;BME280;64046;51.978;5.934;2024-02-21T00:40:23;102024.41;;;14.87;86.35
75359;BME280;64046;51.978;5.934;2024-02-21T00:42:52;102032.28;;;14.67;86.95
75359;BME280;64046;51.978;5.934;2024-02-21T00:45:21;102020.94;;;14.65;87.06
75359;BME280;64046;51.978;5.934;2024-02-21T00:47:50;102023.59;;;14.65;87.30
75359;BME280;64046;51.978;5.934;2024-02-21T00:50:20;102017.50;;;14.63;87.02
75359;BME280;64046;51.978;5.934;2024-02-21T00:52:49;102016.69;;;14.61;87.40
75359;BME280;64046;51.978;5.934;2024-02-21T00:55:18;102009.59;;;14.63;87.34
75359;BME280;64046;51.978;5.934;2024-02-21T00:57:50;101997.25;;;14.84;86.98
75359;BME280;64046;51.978;5.934;2024-02-21T01:00:20;101989.81;;;14.73;87.17
75359;BME280;64046;51.978;5.934;2024-02-21T01:02:49;101990.88;;;14.69;86.99
75359;BME280;64046;51.978;5.934;2024-02-21T01:05:19;101985.47;;;14.72;86.98
75359;BME280;64046;51.978;5.934;2024-02-21T01:07:49;101990.00;;;14.68;86.90
75359;BME280;64046;51.978;5.934;2024-02-21T01:10:18;101986.66;;;14.65;87.05
75359;BME280;64046;51.978;5.934;2024-02-21T01:12:50;101986.78;;;14.82;86.52
75359;BME280;64046;51.978;5.934;2024-02-21T01:15:19;101980.56;;;14.63;87.18
75359;BME280;64046;51.978;5.934;2024-02-21T01:17:48;101982.41;;;14.61;87.21
75359;BME280;64046;51.978;5.934;2024-02-21T01:20:20;101965.78;;;14.59;87.23
75359;BME280;64046;51.978;5.934;2024-02-21T01:22:50;101980.94;;;14.53;87.47
75359;BME280;64046;51.978;5.934;2024-02-21T01:25:19;101996.50;;;14.60;87.55
75359;BME280;64046;51.978;5.934;2024-02-21T01:27:51;101971.84;;;14.81;86.71
75359;BME280;64046;51.978;5.934;2024-02-21T01:30:20;101970.75;;;14.66;86.85
75359;BME280;64046;51.978;5.934;2024-02-21T01:32:50;101972.66;;;14.63;87.07
75359;BME280;64046;51.978;5.934;2024-02-21T01:35:19;101998.34;;;14.58;87.31
75359;BME280;64046;51.978;5.934;2024-02-21T01:37:48;101998.34;;;14.58;87.41
75359;BME280;64046;51.978;5.934;2024-02-21T01:40:18;101998.13;;;14.64;87.33
75359;BME280;64046;51.978;5.934;2024-02-21T01:42:47;101996.44;;;14.61;87.45
75359;BME280;64046;51.978;5.934;2024-02-21T01:45:19;102001.69;;;14.83;86.95
75359;BME280;64046;51.978;5.934;2024-02-21T01:47:49;101992.19;;;14.79;87.35
75359;BME280;64046;51.978;5.934;2024-02-21T01:50:19;101990.06;;;14.67;87.38
75359;BME280;64046;51.978;5.934;2024-02-21T01:52:49;101979.22;;;14.75;87.70
75359;BME280;64046;51.978;5.934;2024-02-21T01:55:19;101977.56;;;14.72;87.55
75359;BME280;64046;51.978;5.934;2024-02-21T01:57:49;101970.34;;;14.76;87.32
75359;BME280;64046;51.978;5.934;2024-02-21T02:00:21;101972.38;;;14.90;86.92
75359;BME280;64046;51.978;5.934;2024-02-21T02:02:51;101968.84;;;14.70;87.38
75359;BME280;64046;51.978;5.934;2024-02-21T02:05:20;101960.00;;;14.71;87.44
75359;BME280;64046;51.978;5.934;2024-02-21T02:07:50;101952.81;;;14.75;87.30
75359;BME280;64046;51.978;5.934;2024-02-21T02:10:19;101945.75;;;14.75;87.18
75359;BME280;64046;51.978;5.934;2024-02-21T02:12:48;101950.25;;;14.73;87.24
75359;BME280;64046;51.978;5.934;2024-02-21T02:15:20;101940.50;;;14.94;86.66
75359;BME280;64046;51.978;5.934;2024-02-21T02:17:50;101937.75;;;14.77;87.20
75359;BME280;64046;51.978;5.934;2024-02-21T02:20:19;101938.69;;;14.76;86.94
75359;BME280;64046;51.978;5.934;2024-02-21T02:22:49;101935.59;;;14.86;86.83
75359;BME280;64046;51.978;5.934;2024-02-21T02:25:21;101932.53;;;14.96;86.42
75359;BME280;64046;51.978;5.934;2024-02-21T02:27:50;101926.38;;;14.76;86.75
75359;BME280;64046;51.978;5.934;2024-02-21T02:30:19;101921.16;;;14.75;86.50
75359;BME280;64046;51.978;5.934;2024-02-21T02:32:48;101921.22;;;14.73;86.69
75359;BME280;64046;51.978;5.934;2024-02-21T02:35:18;101909.72;;;14.74;86.54
75359;BME280;64046;51.978;5.934;2024-02-21T02:37:50;101909.72;;;14.95;85.89
75359;BME280;64046;51.978;5.934;2024-02-21T02:40:22;101902.84;;;14.91;85.95
75359;BME280;64046;51.978;5.934;2024-02-21T02:42:51;101897.72;;;14.67;86.69
75359;BME280;64046;51.978;5.934;2024-02-21T02:45:21;101900.31;;;14.68;86.70
75359;BME280;64046;51.978;5.934;2024-02-21T02:47:52;101895.56;;;14.56;87.09
75359;BME280;64046;51.978;5.934;2024-02-21T02:50:23;101890.28;;;14.56;87.01
75359;BME280;64046;51.978;5.934;2024-02-21T02:52:53;101892.03;;;14.56;87.15
75359;BME280;64046;51.978;5.934;2024-02-21T02:55:25;101898.41;;;14.72;86.60
75359;BME280;64046;51.978;5.934;2024-02-21T02:57:55;101897.28;;;14.57;87.01
75359;BME280;64046;51.978;5.934;2024-02-21T03:00:24;101902.41;;;14.60;86.68
75359;BME280;64046;51.978;5.934;2024-02-21T03:02:54;101901.47;;;14.61;86.74
75359;BME280;64046;51.978;5.934;2024-02-21T03:05:23;101898.06;;;14.59;86.85
75359;BME280;64046;51.978;5.934;2024-02-21T03:07:52;101887.72;;;14.54;86.84
75359;BME280;64046;51.978;5.934;2024-02-21T03:10:21;101892.97;;;14.54;87.03
75359;BME280;64046;51.978;5.934;2024-02-21T03:12:53;101887.63;;;14.77;86.44
75359;BME280;64046;51.978;5.934;2024-02-21T03:15:23;101894.50;;;14.60;86.78
75359;BME280;64046;51.978;5.934;2024-02-21T03:17:52;101879.59;;;14.59;86.93
75359;BME280;64046;51.978;5.934;2024-02-21T03:20:22;101886.06;;;14.73;86.63
75359;BME280;64046;51.978;5.934;2024-02-21T03:22:51;101875.22;;;14.58;86.94
75359;BME280;64046;51.978;5.934;2024-02-21T03:25:20;101874.38;;;14.58;86.98
75359;BME280;64046;51.978;5.934;2024-02-21T03:27:50;101887.56;;;14.58;86.94
75359;BME280;64046;51.978;5.934;2024-02-21T03:30:22;101890.41;;;14.74;86.45
75359;BME280;64046;51.978;5.934;2024-02-21T03:32:51;101884.94;;;14.58;86.89
75359;BME280;64046;51.978;5.934;2024-02-21T03:35:20;101883.06;;;14.60;86.82
75359;BME280;64046;51.978;5.934;2024-02-21T03:37:52;101881.13;;;14.65;86.67
75359;BME280;64046;51.978;5.934;2024-02-21T03:40:22;101869.72;;;14.64;86.46
75359;BME280;64046;51.978;5.934;2024-02-21T03:42:51;101870.44;;;14.68;86.44
75359;BME280;64046;51.978;5.934;2024-02-21T03:45:23;101865.19;;;14.87;85.95
75359;BME280;64046;51.978;5.934;2024-02-21T03:47:52;101856.25;;;14.70;86.10
75359;BME280;64046;51.978;5.934;2024-02-21T03:50:22;101850.06;;;14.72;86.24
75359;BME280;64046;51.978;5.934;2024-02-21T03:52:52;101844.78;;;14.72;86.04
75359;BME280;64046;51.978;5.934;2024-02-21T03:55:21;101840.44;;;14.70;85.90
75359;BME280;64046;51.978;5.934;2024-02-21T03:57:50;101852.97;;;14.65;86.45
75359;BME280;64046;51.978;5.934;2024-02-21T04:00:22;101845.84;;;14.67;86.24
75359;BME280;64046;51.978;5.934;2024-02-21T04:02:52;101848.63;;;14.64;86.14
75359;BME280;64046;51.978;5.934;2024-02-21T04:05:22;101840.56;;;14.67;86.01
75359;BME280;64046;51.978;5.934;2024-02-21T04:07:51;101846.84;;;14.65;86.00
75359;BME280;64046;51.978;5.934;2024-02-21T04:10:20;101848.66;;;14.63;85.91
75359;BME280;64046;51.978;5.934;2024-02-21T04:12:50;101842.00;;;14.54;86.38
75359;BME280;64046;51.978;5.934;2024-02-21T04:15:19;101840.44;;;14.50;86.49
75359;BME280;64046;51.978;5.934;2024-02-21T04:17:51;101843.06;;;14.70;86.12
75359;BME280;64046;51.978;5.934;2024-02-21T04:20:19;101841.00;;;14.57;86.03
75359;BME280;64046;51.978;5.934;2024-02-21T04:22:48;101843.94;;;14.50;86.07
75359;BME280;64046;51.978;5.934;2024-02-21T04:25:18;101842.22;;;14.49;86.28
75359;BME280;64046;51.978;5.934;2024-02-21T04:27:47;101836.94;;;14.49;86.35
75359;BME280;64046;51.978;5.934;2024-02-21T04:30:17;101829.69;;;14.54;86.23
75359;BME280;64046;51.978;5.934;2024-02-21T04:32:47;101824.94;;;14.42;86.29
75359;BME280;64046;51.978;5.934;2024-02-21T04:35:19;101826.75;;;14.61;85.97
75359;BME280;64046;51.978;5.934;2024-02-21T04:37:49;101826.31;;;14.51;86.28
75359;BME280;64046;51.978;5.934;2024-02-21T04:40:19;101826.75;;;14.42;86.24
75359;BME280;64046;51.978;5.934;2024-02-21T04:42:48;101825.84;;;14.41;86.30
75359;BME280;64046;51.978;5.934;2024-02-21T04:45:17;101820.66;;;14.40;86.27
75359;BME280;64046;51.978;5.934;2024-02-21T04:47:47;101818.03;;;14.40;86.37
75359;BME280;64046;51.978;5.934;2024-02-21T04:50:19;101824.31;;;14.37;86.18
75359;BME280;64046;51.978;5.934;2024-02-21T04:52:48;101827.06;;;14.34;86.39
75359;BME280;64046;51.978;5.934;2024-02-21T04:55:17;101812.97;;;14.35;86.36
75359;BME280;64046;51.978;5.934;2024-02-21T04:57:47;101813.81;;;14.35;86.26
75359;BME280;64046;51.978;5.934;2024-02-21T05:00:17;101806.56;;;14.41;86.26
75359;BME280;64046;51.978;5.934;2024-02-21T05:02:46;101795.50;;;14.32;86.30
75359;BME280;64046;51.978;5.934;2024-02-21T05:05:16;101788.31;;;14.36;86.25
75359;BME280;64046;51.978;5.934;2024-02-21T05:07:47;101793.69;;;14.53;85.64
75359;BME280;64046;51.978;5.934;2024-02-21T05:10:17;101792.59;;;14.39;85.91
75359;BME280;64046;51.978;5.934;2024-02-21T05:12:47;101790.81;;;14.39;85.62
75359;BME280;64046;51.978;5.934;2024-02-21T05:15:16;101779.41;;;14.39;85.75
75359;BME280;64046;51.978;5.934;2024-02-21T05:17:45;101783.81;;;14.38;85.94
75359;BME280;64046;51.978;5.934;2024-02-21T05:20:16;101776.06;;;14.54;85.66
75359;BME280;64046;51.978;5.934;2024-02-21T05:22:48;101787.25;;;14.59;85.36
75359;BME280;64046;51.978;5.934;2024-02-21T05:25:17;101778.28;;;14.44;85.64
75359;BME280;64046;51.978;5.934;2024-02-21T05:27:46;101790.66;;;14.42;85.76
75359;BME280;64046;51.978;5.934;2024-02-21T05:30:16;101790.53;;;14.45;85.61
75359;BME280;64046;51.978;5.934;2024-02-21T05:32:46;101774.91;;;14.41;85.53
75359;BME280;64046;51.978;5.934;2024-02-21T05:35:15;101766.22;;;14.39;85.75
75359;BME280;64046;51.978;5.934;2024-02-21T05:37:47;101760.31;;;14.52;85.27
75359;BME280;64046;51.978;5.934;2024-02-21T05:40:18;101758.56;;;14.32;85.88
75359;BME280;64046;51.978;5.934;2024-02-21T05:42:48;101759.38;;;14.34;85.69
75359;BME280;64046;51.978;5.934;2024-02-21T05:45:18;101759.31;;;14.36;85.72
75359;BME280;64046;51.978;5.934;2024-02-21T05:47:47;101757.66;;;14.33;85.93
75359;BME280;64046;51.978;5.934;2024-02-21T05:50:16;101744.56;;;14.32;86.01
75359;BME280;64046;51.978;5.934;2024-02-21T05:52:51;101740.78;;;14.57;85.19
75359;BME280;64046;51.978;5.934;2024-02-21T05:55:22;101737.22;;;14.39;85.78
75359;BME280;64046;51.978;5.934;2024-02-21T05:57:53;101734.88;;;14.51;85.56
75359;BME280;64046;51.978;5.934;2024-02-21T06:00:23;101730.38;;;14.34;85.71
75359;BME280;64046;51.978;5.934;2024-02-21T06:02:52;101728.59;;;14.35;85.88
75359;BME280;64046;51.978;5.934;2024-02-21T06:05:21;101717.91;;;14.38;85.71
75359;BME280;64046;51.978;5.934;2024-02-21T06:07:53;101719.59;;;14.58;85.48
75359;BME280;64046;51.978;5.934;2024-02-21T06:10:23;101722.09;;;14.42;85.27
75359;BME280;64046;51.978;5.934;2024-02-21T06:12:52;101712.69;;;14.36;85.42
75359;BME280;64046;51.978;5.934;2024-02-21T06:15:21;101712.84;;;14.33;85.45
75359;BME280;64046;51.978;5.934;2024-02-21T06:17:51;101713.69;;;14.34;85.58
75359;BME280;64046;51.978;5.934;2024-02-21T06:20:20;101710.34;;;14.30;85.64
75359;BME280;64046;51.978;5.934;2024-02-21T06:22:49;101709.34;;;14.33;85.58
75359;BME280;64046;51.978;5.934;2024-02-21T06:25:21;101704.91;;;14.52;85.09
75359;BME280;64046;51.978;5.934;2024-02-21T06:27:50;101705.78;;;14.34;85.49
75359;BME280;64046;51.978;5.934;2024-02-21T06:30:20;101699.81;;;14.30;85.37
75359;BME280;64046;51.978;5.934;2024-02-21T06:32:49;101698.09;;;14.29;85.48
75359;BME280;64046;51.978;5.934;2024-02-21T06:35:19;101684.91;;;14.29;85.46
75359;BME280;64046;51.978;5.934;2024-02-21T06:37:50;101699.22;;;14.24;85.49
75359;BME280;64046;51.978;5.934;2024-02-21T06:40:23;101701.84;;;14.43;84.89
75359;BME280;64046;51.978;5.934;2024-02-21T06:42:53;101700.00;;;14.26;85.31
75359;BME280;64046;51.978;5.934;2024-02-21T06:45:22;101698.94;;;14.30;85.19
75359;BME280;64046;51.978;5.934;2024-02-21T06:47:52;101700.94;;;14.25;85.41
75359;BME280;64046;51.978;5.934;2024-02-21T06:50:21;101702.59;;;14.27;85.33
75359;BME280;64046;51.978;5.934;2024-02-21T06:52:50;101710.50;;;14.27;85.24
75359;BME280;64046;51.978;5.934;2024-02-21T06:55:19;101706.84;;;14.30;85.04
75359;BME280;64046;51.978;5.934;2024-02-21T06:57:52;101697.22;;;14.48;84.68
75359;BME280;64046;51.978;5.934;2024-02-21T07:00:22;101697.75;;;14.37;84.65
75359;BME280;64046;51.978;5.934;2024-02-21T07:02:52;101704.19;;;14.30;84.53
75359;BME280;64046;51.978;5.934;2024-02-21T07:05:22;101701.44;;;14.33;84.56
75359;BME280;64046;51.978;5.934;2024-02-21T07:07:51;101697.03;;;14.33;84.46
75359;BME280;64046;51.978;5.934;2024-02-21T07:10:20;101687.31;;;14.34;84.24
75359;BME280;64046;51.978;5.934;2024-02-21T07:12:52;101695.25;;;14.53;83.98
75359;BME280;64046;51.978;5.934;2024-02-21T07:15:21;101686.41;;;14.35;84.04
75359;BME280;64046;51.978;5.934;2024-02-21T07:17:53;101685.47;;;14.36;84.01
75359;BME280;64046;51.978;5.934;2024-02-21T07:20:22;101682.91;;;14.34;84.00
75359;BME280;64046;51.978;5.934;2024-02-21T07:22:51;101681.06;;;14.36;83.85
75359;BME280;64046;51.978;5.934;2024-02-21T07:25:20;101666.94;;;14.38;83.54
75359;BME280;64046;51.978;5.934;2024-02-21T07:27:52;101673.00;;;14.59;83.18
75359;BME280;64046;51.978;5.934;2024-02-21T07:30:22;101666.72;;;14.42;83.10
75359;BME280;64046;51.978;5.934;2024-02-21T07:32:51;101664.00;;;14.44;83.12
75359;BME280;64046;51.978;5.934;2024-02-21T07:35:22;101663.31;;;14.40;83.28
75359;BME280;64046;51.978;5.934;2024-02-21T07:37:51;101662.44;;;14.40;83.48
75359;BME280;64046;51.978;5.934;2024-02-21T07:40:20;101664.31;;;14.38;83.41
75359;BME280;64046;51.978;5.934;2024-02-21T07:42:52;101660.88;;;14.54;83.06
75359;BME280;64046;51.978;5.934;2024-02-21T07:45:21;101656.41;;;14.18;84.69
75359;BME280;64046;51.978;5.934;2024-02-21T07:47:51;101647.84;;;14.13;85.14
75359;BME280;64046;51.978;5.934;2024-02-21T07:50:20;101644.38;;;14.13;85.23
75359;BME280;64046;51.978;5.934;2024-02-21T07:52:49;101648.63;;;14.15;85.30
75359;BME280;64046;51.978;5.934;2024-02-21T07:55:19;101639.72;;;14.18;85.28
75359;BME280;64046;51.978;5.934;2024-02-21T07:57:48;101629.97;;;14.20;85.00
75359;BME280;64046;51.978;5.934;2024-02-21T08:00:22;101631.81;;;14.37;84.69
75359;BME280;64046;51.978;5.934;2024-02-21T08:02:51;101605.44;;;14.18;85.00
75359;BME280;64046;51.978;5.934;2024-02-21T08:05:20;101605.22;;;14.23;84.78
75359;BME280;64046;51.978;5.934;2024-02-21T08:07:50;101598.41;;;14.18;85.04
75359;BME280;64046;51.978;5.934;2024-02-21T08:10:19;101599.91;;;14.24;84.86
75359;BME280;64046;51.978;5.934;2024-02-21T08:12:48;101597.41;;;14.21;84.56
75359;BME280;64046;51.978;5.934;2024-02-21T08:15:18;101601.69;;;14.24;84.48
75359;BME280;64046;51.978;5.934;2024-02-21T08:17:53;101587.69;;;14.41;84.06
75359;BME280;64046;51.978;5.934;2024-02-21T08:20:25;101604.25;;;14.25;84.42
75359;BME280;64046;51.978;5.934;2024-02-21T08:22:54;101605.97;;;14.26;84.43
75359;BME280;64046;51.978;5.934;2024-02-21T08:25:24;101603.97;;;14.31;83.91
75359;BME280;64046;51.978;5.934;2024-02-21T08:27:55;101591.31;;;14.38;83.95
75359;BME280;64046;51.978;5.934;2024-02-21T08:30:25;101589.91;;;14.31;83.98
75359;BME280;64046;51.978;5.934;2024-02-21T08:32:57;101583.75;;;14.49;83.53
75359;BME280;64046;51.978;5.934;2024-02-21T08:35:26;101573.81;;;14.37;83.46
75359;BME280;64046;51.978;5.934;2024-02-21T08:37:55;101585.28;;;14.36;83.40
75359;BME280;64046;51.978;5.934;2024-02-21T08:40:24;101571.03;;;14.40;83.32
75359;BME280;64046;51.978;5.934;2024-02-21T08:42:54;101576.38;;;14.39;83.21
75359;BME280;64046;51.978;5.934;2024-02-21T08:45:23;101571.09;;;14.39;83.31
75359;BME280;64046;51.978;5.934;2024-02-21T08:47:52;101568.47;;;14.39;82.94
75359;BME280;64046;51.978;5.934;2024-02-21T08:50:24;101557.16;;;14.54;82.67
75359;BME280;64046;51.978;5.934;2024-02-21T08:52:54;101570.00;;;14.43;82.75
75359;BME280;64046;51.978;5.934;2024-02-21T08:55:24;101562.31;;;14.38;82.70
75359;BME280;64046;51.978;5.934;2024-02-21T08:57:53;101553.34;;;14.42;82.77
75359;BME280;64046;51.978;5.934;2024-02-21T09:00:22;101546.84;;;14.49;82.53
75359;BME280;64046;51.978;5.934;2024-02-21T09:02:53;101544.03;;;14.52;82.36
75359;BME280;64046;51.978;5.934;2024-02-21T09:05:26;101534.56;;;14.67;81.81
75359;BME280;64046;51.978;5.934;2024-02-21T09:07:55;101532.41;;;14.57;82.06
75359;BME280;64046;51.978;5.934;2024-02-21T09:10:25;101525.22;;;14.60;81.74
75359;BME280;64046;51.978;5.934;2024-02-21T09:12:57;101530.53;;;14.78;81.30
75359;BME280;64046;51.978;5.934;2024-02-21T09:15:26;101526.84;;;14.63;81.74
75359;BME280;64046;51.978;5.934;2024-02-21T09:17:55;101535.56;;;14.65;81.50
75359;BME280;64046;51.978;5.934;2024-02-21T09:20:27;101547.91;;;14.82;81.10
75359;BME280;64046;51.978;5.934;2024-02-21T09:22:57;101538.13;;;14.66;81.46
75359;BME280;64046;51.978;5.934;2024-02-21T09:25:27;101538.75;;;14.72;81.22
75359;BME280;64046;51.978;5.934;2024-02-21T09:27:57;101532.63;;;14.71;81.01
75359;BME280;64046;51.978;5.934;2024-02-21T09:30:26;101534.41;;;14.70;80.78
75359;BME280;64046;51.978;5.934;2024-02-21T09:32:56;101528.06;;;14.75;80.74
75359;BME280;64046;51.978;5.934;2024-02-21T09:35:30;101525.41;;;14.92;80.05
75359;BME280;64046;51.978;5.934;2024-02-21T09:37:59;101528.06;;;14.75;80.27
75359;BME280;64046;51.978;5.934;2024-02-21T09:40:29;101508.03;;;14.70;80.29
75359;BME280;64046;51.978;5.934;2024-02-21T09:43:02;101514.00;;;14.92;79.62
75359;BME280;64046;51.978;5.934;2024-02-21T09:45:35;101502.50;;;14.93;79.58
75359;BME280;64046;51.978;5.934;2024-02-21T09:48:25;101502.19;;;14.99;78.64
75359;BME280;64046;51.978;5.934;2024-02-21T09:51:01;101502.50;;;14.93;79.60
75359;BME280;64046;51.978;5.934;2024-02-21T09:53:32;101491.34;;;14.87;79.48
75359;BME280;64046;51.978;5.934;2024-02-21T09:56:04;101491.59;;;14.83;79.74
75359;BME280;64046;51.978;5.934;2024-02-21T09:58:34;101482.25;;;14.76;79.63
75359;BME280;64046;51.978;5.934;2024-02-21T10:01:03;101480.31;;;14.79;79.41
75359;BME280;64046;51.978;5.934;2024-02-21T10:03:33;101483.03;;;14.78;79.31
75359;BME280;64046;51.978;5.934;2024-02-21T10:06:05;101473.47;;;14.93;79.15
75359;BME280;64046;51.978;5.934;2024-02-21T10:08:34;101471.84;;;14.73;79.16
75359;BME280;64046;51.978;5.934;2024-02-21T10:11:03;101466.38;;;14.77;79.19
75359;BME280;64046;51.978;5.934;2024-02-21T10:13:35;101457.75;;;14.74;79.36
75359;BME280;64046;51.978;5.934;2024-02-21T10:16:05;101455.66;;;14.80;79.23
75359;BME280;64046;51.978;5.934;2024-02-21T10:18:35;101444.47;;;14.75;79.08
75359;BME280;64046;51.978;5.934;2024-02-21T10:21:08;101428.44;;;14.96;78.84
75359;BME280;64046;51.978;5.934;2024-02-21T10:23:44;101427.22;;;15.03;78.79
75359;BME280;64046;51.978;5.934;2024-02-21T10:26:14;101423.50;;;14.90;79.31
75359;BME280;64046;51.978;5.934;2024-02-21T10:28:43;101420.41;;;14.81;79.62
75359;BME280;64046;51.978;5.934;2024-02-21T10:31:22;101417.88;;;14.96;79.23
75359;BME280;64046;51.978;5.934;2024-02-21T10:33:56;101412.94;;;14.90;79.97
75359;BME280;64046;51.978;5.934;2024-02-21T10:36:28;101408.66;;;14.87;80.43
75359;BME280;64046;51.978;5.934;2024-02-21T10:38:58;101402.84;;;14.64;81.19
75359;BME280;64046;51.978;5.934;2024-02-21T10:41:28;101403.28;;;14.73;81.43
75359;BME280;64046;51.978;5.934;2024-02-21T10:44:00;101391.72;;;14.75;81.66
75359;BME280;64046;51.978;5.934;2024-02-21T10:46:35;101395.69;;;14.66;82.47
75359;BME280;64046;51.978;5.934;2024-02-21T10:49:10;101389.91;;;14.76;82.53
75359;BME280;64046;51.978;5.934;2024-02-21T10:51:45;101380.22;;;14.76;82.94
75359;BME280;64046;51.978;5.934;2024-02-21T10:54:27;101379.13;;;14.80;82.99
75359;BME280;64046;51.978;5.934;2024-02-21T10:57:00;101374.25;;;14.73;83.93
75359;BME280;64046;51.978;5.934;2024-02-21T10:59:32;101370.84;;;14.70;84.07
75359;BME280;64046;51.978;5.934;2024-02-21T11:02:02;101359.06;;;14.60;84.66
75359;BME280;64046;51.978;5.934;2024-02-21T11:04:33;101350.84;;;14.66;84.87
75359;BME280;64046;51.978;5.934;2024-02-21T11:07:06;101342.59;;;14.73;85.04
75359;BME280;64046;51.978;5.934;2024-02-21T11:09:36;101338.34;;;14.52;85.63
75359;BME280;64046;51.978;5.934;2024-02-21T11:12:06;101330.75;;;14.64;85.89
75359;BME280;64046;51.978;5.934;2024-02-21T11:14:38;101306.72;;;14.70;85.65
75359;BME280;64046;51.978;5.934;2024-02-21T11:17:15;101290.78;;;14.72;84.94
75359;BME280;64046;51.978;5.934;2024-02-21T11:19:44;101265.94;;;14.42;85.89
75359;BME280;64046;51.978;5.934;2024-02-21T11:22:20;101258.78;;;14.62;85.02
75359;BME280;64046;51.978;5.934;2024-02-21T11:24:52;101254.56;;;14.42;85.91
75359;BME280;64046;51.978;5.934;2024-02-21T11:27:22;101260.78;;;14.57;85.55
75359;BME280;64046;51.978;5.934;2024-02-21T11:29:55;101266.28;;;14.69;84.97
75359;BME280;64046;51.978;5.934;2024-02-21T11:32:26;101274.34;;;14.66;84.97
75359;BME280;64046;51.978;5.934;2024-02-21T11:34:56;101285.81;;;14.65;85.00
75359;BME280;64046;51.978;5.934;2024-02-21T11:37:31;101285.19;;;14.78;84.83
75359;BME280;64046;51.978;5.934;2024-02-21T11:40:04;101283.19;;;14.65;85.15
75359;BME280;64046;51.978;5.934;2024-02-21T11:42:36;101278.78;;;14.48;85.76
75359;BME280;64046;51.978;5.934;2024-02-21T11:45:06;101265.22;;;14.56;85.71
75359;BME280;64046;51.978;5.934;2024-02-21T11:47:38;101259.84;;;14.58;85.41
75359;BME280;64046;51.978;5.934;2024-02-21T11:50:09;101247.28;;;14.63;85.43
75359;BME280;64046;51.978;5.934;2024-02-21T11:52:41;101240.59;;;14.73;84.87
75359;BME280;64046;51.978;5.934;2024-02-21T11:55:12;101244.78;;;14.60;84.71
75359;BME280;64046;51.978;5.934;2024-02-21T11:57:41;101237.34;;;14.68;84.04
75359;BME280;64046;51.978;5.934;2024-02-21T12:00:13;101239.63;;;14.74;83.72
75359;BME280;64046;51.978;5.934;2024-02-21T12:02:44;101242.44;;;14.71;82.99
75359;BME280;64046;51.978;5.934;2024-02-21T12:05:14;101236.25;;;14.72;82.91
75359;BME280;64046;51.978;5.934;2024-02-21T12:07:48;101237.16;;;14.87;82.39
75359;BME280;64046;51.978;5.934;2024-02-21T12:10:18;101227.41;;;14.73;82.34
75359;BME280;64046;51.978;5.934;2024-02-21T12:12:47;101209.94;;;14.70;82.36
75359;BME280;64046;51.978;5.934;2024-02-21T12:15:18;101197.94;;;14.81;81.85
75359;BME280;64046;51.978;5.934;2024-02-21T12:17:47;101192.41;;;14.85;81.68
75359;BME280;64046;51.978;5.934;2024-02-21T12:20:18;101192.81;;;14.94;80.64
75359;BME280;64046;51.978;5.934;2024-02-21T12:22:52;101179.41;;;15.13;79.97
75359;BME280;64046;51.978;5.934;2024-02-21T12:25:22;101147.44;;;15.03;80.47
75359;BME280;64046;51.978;5.934;2024-02-21T12:27:53;101129.13;;;15.00;79.98
75359;BME280;64046;51.978;5.934;2024-02-21T12:30:23;101116.63;;;15.03;79.36
75359;BME280;64046;51.978;5.934;2024-02-21T12:32:53;101095.50;;;15.03;78.79
75359;BME280;64046;51.978;5.934;2024-02-21T12:35:22;101098.78;;;15.07;78.65
75359;BME280;64046;51.978;5.934;2024-02-21T12:37:57;101092.00;;;15.33;77.55
75359;BME280;64046;51.978;5.934;2024-02-21T12:40:27;101086.50;;;15.22;77.74
75359;BME280;64046;51.978;5.934;2024-02-21T12:42:59;101077.75;;;15.36;77.39
75359;BME280;64046;51.978;5.934;2024-02-21T12:45:29;101078.00;;;15.31;76.92
75359;BME280;64046;51.978;5.934;2024-02-21T12:47:59;101070.00;;;15.33;76.89
75359;BME280;64046;51.978;5.934;2024-02-21T12:50:30;101060.66;;;15.42;76.49
75359;BME280;64046;51.978;5.934;2024-02-21T12:53:03;101059.28;;;15.65;75.94
75359;BME280;64046;51.978;5.934;2024-02-21T12:55:32;101049.94;;;15.45;75.25
75359;BME280;64046;51.978;5.934;2024-02-21T12:58:03;101052.59;;;15.59;75.13
75359;BME280;64046;51.978;5.934;2024-02-21T13:00:35;101031.56;;;15.43;74.96
75359;BME280;64046;51.978;5.934;2024-02-21T13:03:05;101020.31;;;15.39;74.81
75359;BME280;64046;51.978;5.934;2024-02-21T13:05:35;101007.00;;;15.41;74.98